Time;durP1;ratioP1;P1;durP2;ratioP2;P2;SDS_P1;SDS_P2;PMS_P1;PMS_P2;Temp;Humidity;BMP_temperature;BMP_pressure;BME280_temperature;BME280_humidity;BME280_pressure;Samples;Min_cycle;Max_cycle;Signal;HPM_P1;HPM_P2
2021/09/20 00:02:19;;;;;;;4.30;2.40;;;;;;;;;;5052095;28;20033;-51
2021/09/20 00:04:45;;;;;;;2.83;2.13;;;;;;;;;;5051670;28;20431;-51
2021/09/20 00:07:11;;;;;;;3.05;2.80;;;;;;;;;;5051805;28;20083;-51
2021/09/20 00:09:37;;;;;;;4.25;2.55;;;;;;;;;;5051592;28;20104;-51
2021/09/20 00:12:04;;;;;;;2.78;2.30;;;;;;;;;;5052092;28;20052;-50
2021/09/20 00:14:29;;;;;;;3.85;2.55;;;;;;;;;;5051341;28;20051;-51
2021/09/20 00:16:55;;;;;;;3.42;2.03;;;;;;;;;;5051890;28;20499;-51
2021/09/20 00:19:22;;;;;;;2.15;1.88;;;;;;;;;;5052427;28;20029;-51
2021/09/20 00:21:48;;;;;;;3.00;2.00;;;;;;;;;;5053599;28;20091;-51
2021/09/20 00:24:14;;;;;;;2.72;2.13;;;;;;;;;;5055161;28;20469;-51
2021/09/20 00:26:40;;;;;;;2.72;2.40;;;;;;;;;;5055353;28;20032;-51
2021/09/20 00:29:06;;;;;;;3.10;2.03;;;;;;;;;;5055612;28;20033;-51
2021/09/20 00:31:32;;;;;;;3.78;2.85;;;;;;;;;;5055138;28;20028;-51
2021/09/20 00:33:58;;;;;;;4.70;3.30;;;;;;;;;;5054741;28;20032;-51
2021/09/20 00:36:24;;;;;;;6.20;3.22;;;;;;;;;;5056069;28;20062;-51
2021/09/20 00:38:50;;;;;;;7.05;3.30;;;;;;;;;;5055299;28;20037;-51
2021/09/20 00:41:15;;;;;;;12.55;3.75;;;;;;;;;;5055026;28;20048;-51
2021/09/20 00:43:41;;;;;;;10.65;3.08;;;;;;;;;;5054599;28;20103;-51
2021/09/20 00:46:08;;;;;;;6.03;3.35;;;;;;;;;;5055415;28;20620;-51
2021/09/20 00:48:34;;;;;;;4.35;3.22;;;;;;;;;;5055037;28;20112;-51
2021/09/20 00:51:00;;;;;;;3.40;3.00;;;;;;;;;;5055239;28;20344;-51
2021/09/20 00:53:26;;;;;;;2.83;2.25;;;;;;;;;;5054251;28;20036;-51
2021/09/20 00:55:53;;;;;;;3.72;2.65;;;;;;;;;;5055033;28;20100;-51
2021/09/20 00:58:19;;;;;;;5.68;3.78;;;;;;;;;;5054815;28;20455;-51
2021/09/20 01:00:45;;;;;;;4.28;3.17;;;;;;;;;;5055047;28;20021;-51
2021/09/20 01:03:11;;;;;;;4.03;3.45;;;;;;;;;;5055220;28;20098;-50
2021/09/20 01:05:37;;;;;;;4.88;3.25;;;;;;;;;;5054379;28;20024;-51
2021/09/20 01:08:03;;;;;;;5.03;3.03;;;;;;;;;;5054462;28;20394;-51
2021/09/20 01:10:29;;;;;;;4.72;2.53;;;;;;;;;;5052159;28;20021;-51
2021/09/20 01:12:55;;;;;;;4.47;3.55;;;;;;;;;;5035143;28;20091;-51
2021/09/20 01:15:21;;;;;;;4.28;3.55;;;;;;;;;;5033842;28;20455;-51
2021/09/20 01:17:47;;;;;;;4.18;3.15;;;;;;;;;;5034877;28;20042;-51
2021/09/20 01:20:13;;;;;;;6.55;4.07;;;;;;;;;;5035121;28;20375;-51
2021/09/20 01:22:40;;;;;;;6.57;3.42;;;;;;;;;;5034455;28;20049;-51
2021/09/20 01:25:07;;;;;;;4.88;3.47;;;;;;;;;;5033937;28;20021;-51
2021/09/20 01:27:33;;;;;;;5.38;4.00;;;;;;;;;;5034401;28;20117;-51
2021/09/20 01:29:59;;;;;;;5.70;3.05;;;;;;;;;;5034638;28;20040;-51
2021/09/20 01:32:25;;;;;;;8.20;3.05;;;;;;;;;;5033572;28;20105;-51
2021/09/20 01:34:51;;;;;;;4.93;3.50;;;;;;;;;;5033249;28;20097;-51
2021/09/20 01:37:17;;;;;;;6.45;3.20;;;;;;;;;;5034549;28;20398;-51
2021/09/20 01:39:43;;;;;;;6.43;3.53;;;;;;;;;;5054294;28;20078;-51
2021/09/20 01:42:10;;;;;;;4.28;3.45;;;;;;;;;;5054397;28;20033;-51
2021/09/20 01:44:36;;;;;;;9.73;3.67;;;;;;;;;;5053363;28;20257;-50
2021/09/20 01:47:02;;;;;;;5.40;3.67;;;;;;;;;;5053969;28;20463;-50
2021/09/20 01:49:28;;;;;;;4.80;3.25;;;;;;;;;;5054272;28;20029;-50
2021/09/20 01:51:55;;;;;;;3.90;2.90;;;;;;;;;;5054062;28;20104;-51
2021/09/20 01:54:21;;;;;;;4.93;3.70;;;;;;;;;;5036439;28;20194;-51
2021/09/20 01:56:47;;;;;;;4.43;3.55;;;;;;;;;;5051243;28;20024;-50
2021/09/20 01:59:13;;;;;;;5.28;4.03;;;;;;;;;;5053631;28;20117;-51
2021/09/20 02:01:39;;;;;;;11.63;4.18;;;;;;;;;;5044632;28;20056;-51
2021/09/20 02:04:05;;;;;;;5.28;3.85;;;;;;;;;;5051886;28;20469;-51
2021/09/20 02:06:31;;;;;;;7.03;3.90;;;;;;;;;;5053398;28;20024;-50
2021/09/20 02:08:57;;;;;;;6.25;4.00;;;;;;;;;;5054013;28;20207;-50
2021/09/20 02:11:24;;;;;;;6.40;4.10;;;;;;;;;;5043418;28;20459;-51
2021/09/20 02:13:51;;;;;;;6.03;4.10;;;;;;;;;;5032851;28;20436;-51
2021/09/20 02:16:18;;;;;;;7.90;4.97;;;;;;;;;;5033309;28;20022;-50
2021/09/20 02:18:44;;;;;;;7.30;4.40;;;;;;;;;;5033844;28;20122;-50
2021/09/20 02:21:10;;;;;;;6.65;4.55;;;;;;;;;;5033777;28;20503;-50
2021/09/20 02:23:37;;;;;;;9.93;4.57;;;;;;;;;;5032359;28;20323;-50
2021/09/20 02:26:03;;;;;;;6.35;3.95;;;;;;;;;;5033882;28;20052;-50
2021/09/20 02:28:29;;;;;;;7.18;4.00;;;;;;;;;;5033400;28;20136;-50
2021/09/20 02:30:56;;;;;;;8.05;4.60;;;;;;;;;;5033108;28;20095;-50
2021/09/20 02:33:22;;;;;;;8.90;4.63;;;;;;;;;;5033396;28;20056;-50
2021/09/20 02:35:48;;;;;;;7.25;4.60;;;;;;;;;;5032585;28;20448;-50
2021/09/20 02:38:14;;;;;;;6.07;3.85;;;;;;;;;;5041015;28;20064;-50
2021/09/20 02:40:40;;;;;;;6.63;4.25;;;;;;;;;;5053176;28;20059;-50
2021/09/20 02:43:06;;;;;;;8.73;4.22;;;;;;;;;;5052916;28;20025;-50
2021/09/20 02:45:32;;;;;;;6.88;4.38;;;;;;;;;;5051807;28;20036;-50
2021/09/20 02:47:58;;;;;;;10.05;4.88;;;;;;;;;;5053213;28;20021;-50
2021/09/20 02:50:24;;;;;;;9.48;4.00;;;;;;;;;;5053099;28;20048;-50
2021/09/20 02:52:51;;;;;;;8.00;4.53;;;;;;;;;;5052616;28;20431;-50
2021/09/20 02:55:17;;;;;;;6.57;3.90;;;;;;;;;;5052248;28;20021;-50
2021/09/20 02:57:43;;;;;;;6.50;4.50;;;;;;;;;;5052782;28;20064;-51
2021/09/20 03:00:09;;;;;;;5.78;3.83;;;;;;;;;;5045194;28;20032;-51
2021/09/20 03:02:35;;;;;;;8.90;4.55;;;;;;;;;;5052349;28;20466;-50
2021/09/20 03:05:01;;;;;;;6.85;4.43;;;;;;;;;;5051920;28;20023;-50
2021/09/20 03:07:27;;;;;;;7.68;4.18;;;;;;;;;;5052481;28;20108;-50
2021/09/20 03:09:53;;;;;;;6.38;4.10;;;;;;;;;;5052741;28;20021;-50
2021/09/20 03:12:19;;;;;;;8.50;4.43;;;;;;;;;;5041141;28;20086;-50
2021/09/20 03:14:45;;;;;;;8.32;4.00;;;;;;;;;;5051822;28;20025;-50
2021/09/20 03:17:11;;;;;;;6.80;3.70;;;;;;;;;;5052951;28;20036;-50
2021/09/20 03:19:37;;;;;;;7.35;4.15;;;;;;;;;;5052786;28;20033;-50
2021/09/20 03:22:04;;;;;;;8.25;3.90;;;;;;;;;;5052498;28;20454;-50
2021/09/20 03:24:30;;;;;;;7.72;4.43;;;;;;;;;;5051817;28;20116;-50
2021/09/20 03:26:56;;;;;;;6.40;3.88;;;;;;;;;;5052356;28;20036;-51
2021/09/20 03:29:22;;;;;;;5.72;3.40;;;;;;;;;;5052489;28;20070;-50
2021/09/20 03:31:48;;;;;;;6.05;3.83;;;;;;;;;;5052099;28;20108;-50
2021/09/20 03:34:14;;;;;;;5.53;4.03;;;;;;;;;;5051759;28;20477;-51
2021/09/20 03:36:40;;;;;;;8.10;4.53;;;;;;;;;;5052128;28;20021;-51
2021/09/20 03:39:07;;;;;;;6.50;3.95;;;;;;;;;;5052078;28;20029;-50
2021/09/20 03:41:33;;;;;;;12.80;4.47;;;;;;;;;;5049739;28;20321;-50
2021/09/20 03:43:59;;;;;;;11.93;4.30;;;;;;;;;;5051355;28;20028;-50
2021/09/20 03:46:25;;;;;;;8.93;4.10;;;;;;;;;;5052538;28;20028;-50
2021/09/20 03:48:51;;;;;;;6.03;3.83;;;;;;;;;;5052530;28;20033;-50
2021/09/20 03:51:17;;;;;;;6.57;4.13;;;;;;;;;;5052356;28;20055;-51
2021/09/20 03:53:43;;;;;;;6.47;3.92;;;;;;;;;;5051564;28;20423;-50
2021/09/20 03:56:09;;;;;;;7.88;4.38;;;;;;;;;;5053292;28;20029;-50
2021/09/20 03:58:36;;;;;;;9.27;4.50;;;;;;;;;;5054576;28;20454;-50
2021/09/20 04:01:02;;;;;;;6.50;3.55;;;;;;;;;;5056322;28;20025;-50
2021/09/20 04:03:28;;;;;;;6.30;4.13;;;;;;;;;;5055824;28;20036;-51
2021/09/20 04:05:54;;;;;;;7.00;4.05;;;;;;;;;;5055662;28;20346;-50
2021/09/20 04:08:26;;;;;;;6.90;3.53;;;;;;;;;;5055974;28;20108;-51
2021/09/20 04:10:52;;;;;;;6.43;4.05;;;;;;;;;;5050391;28;20029;-50
2021/09/20 04:13:18;;;;;;;5.47;3.50;;;;;;;;;;5033822;28;20050;-50
2021/09/20 04:15:44;;;;;;;10.60;4.38;;;;;;;;;;5053518;28;20025;-51
2021/09/20 04:18:10;;;;;;;7.63;4.00;;;;;;;;;;5056138;28;20036;-50
2021/09/20 04:20:36;;;;;;;8.40;4.18;;;;;;;;;;5036266;28;20100;-50
2021/09/20 04:23:02;;;;;;;6.10;3.70;;;;;;;;;;5035434;28;20370;-51
2021/09/20 04:25:28;;;;;;;6.55;4.13;;;;;;;;;;5035055;28;20025;-51
2021/09/20 04:27:54;;;;;;;11.45;4.57;;;;;;;;;;5035389;28;20380;-50
2021/09/20 04:30:20;;;;;;;7.40;4.30;;;;;;;;;;5040721;28;20033;-50
2021/09/20 04:32:46;;;;;;;9.13;4.50;;;;;;;;;;5055010;28;20059;-51
2021/09/20 04:35:12;;;;;;;9.43;4.85;;;;;;;;;;5054543;28;20052;-50
2021/09/20 04:37:39;;;;;;;7.82;4.68;;;;;;;;;;5051519;28;20094;-50
2021/09/20 04:40:05;;;;;;;10.18;5.20;;;;;;;;;;5055407;28;20410;-51
2021/09/20 04:42:31;;;;;;;7.28;4.53;;;;;;;;;;5040254;28;20021;-51
2021/09/20 04:44:57;;;;;;;7.80;4.57;;;;;;;;;;5034415;28;20355;-51
2021/09/20 04:47:23;;;;;;;7.78;4.68;;;;;;;;;;5034346;28;20021;-50
2021/09/20 04:49:49;;;;;;;8.77;4.35;;;;;;;;;;5035383;28;20481;-50
2021/09/20 04:52:15;;;;;;;7.60;4.53;;;;;;;;;;5034053;28;20052;-51
2021/09/20 04:54:41;;;;;;;6.78;4.43;;;;;;;;;;5034549;28;20428;-50
2021/09/20 04:57:07;;;;;;;15.52;4.78;;;;;;;;;;5035219;28;20092;-50
2021/09/20 04:59:33;;;;;;;9.40;5.82;;;;;;;;;;5034676;28;20033;-50
2021/09/20 05:01:59;;;;;;;9.02;4.45;;;;;;;;;;5035319;28;20049;-50
2021/09/20 05:04:25;;;;;;;9.10;4.45;;;;;;;;;;5034312;28;20498;-50
2021/09/20 05:06:51;;;;;;;7.03;4.78;;;;;;;;;;5034478;28;20061;-51
2021/09/20 05:09:17;;;;;;;8.45;4.38;;;;;;;;;;5034909;28;20017;-51
2021/09/20 05:11:43;;;;;;;8.82;4.85;;;;;;;;;;5037400;28;20029;-50
2021/09/20 05:14:09;;;;;;;11.82;4.40;;;;;;;;;;5053430;28;20040;-51
2021/09/20 05:16:35;;;;;;;9.30;4.68;;;;;;;;;;5054031;28;20021;-51
2021/09/20 05:19:01;;;;;;;8.13;4.47;;;;;;;;;;5054001;28;20469;-51
2021/09/20 05:21:27;;;;;;;8.70;4.88;;;;;;;;;;5053911;28;20029;-51
2021/09/20 05:23:53;;;;;;;8.63;4.63;;;;;;;;;;5053803;28;20039;-51
2021/09/20 05:26:19;;;;;;;17.77;5.05;;;;;;;;;;5054778;28;20028;-51
2021/09/20 05:28:45;;;;;;;7.63;4.78;;;;;;;;;;5054522;28;20335;-51
2021/09/20 05:31:11;;;;;;;7.70;4.63;;;;;;;;;;5054173;28;20457;-51
2021/09/20 05:33:37;;;;;;;9.93;4.93;;;;;;;;;;5053826;28;20405;-51
2021/09/20 05:36:04;;;;;;;8.60;4.90;;;;;;;;;;5036701;28;20032;-51
2021/09/20 05:38:30;;;;;;;8.77;4.95;;;;;;;;;;5044771;28;20052;-51
2021/09/20 05:40:56;;;;;;;11.15;5.05;;;;;;;;;;5043831;28;20017;-51
2021/09/20 05:43:23;;;;;;;12.13;5.38;;;;;;;;;;5043227;28;20104;-51
2021/09/20 05:45:49;;;;;;;10.10;5.82;;;;;;;;;;5042854;28;20041;-51
2021/09/20 05:48:20;;;;;;;14.50;5.38;;;;;;;;;;5044426;28;20025;-51
2021/09/20 05:50:46;;;;;;;10.70;5.60;;;;;;;;;;5043634;28;20029;-51
2021/09/20 05:53:13;;;;;;;12.63;6.45;;;;;;;;;;5044031;28;20025;-51
2021/09/20 05:55:39;;;;;;;9.27;5.57;;;;;;;;;;5043579;28;20514;-51
2021/09/20 05:58:05;;;;;;;10.82;5.38;;;;;;;;;;5043934;28;20078;-51
2021/09/20 06:00:31;;;;;;;12.40;6.18;;;;;;;;;;5045150;28;20446;-51
2021/09/20 06:02:57;;;;;;;10.57;5.80;;;;;;;;;;5044142;28;20030;-51
2021/09/20 06:05:23;;;;;;;10.52;5.88;;;;;;;;;;5044116;28;20340;-51
2021/09/20 06:07:49;;;;;;;13.90;6.35;;;;;;;;;;5044780;28;20486;-51
2021/09/20 06:10:16;;;;;;;11.13;5.88;;;;;;;;;;5045382;28;20017;-51
2021/09/20 06:12:42;;;;;;;9.63;5.63;;;;;;;;;;5043972;28;20469;-50
2021/09/20 06:15:09;;;;;;;11.13;6.07;;;;;;;;;;5044706;28;20030;-51
2021/09/20 06:17:35;;;;;;;11.70;5.53;;;;;;;;;;5044379;28;20373;-51
2021/09/20 06:20:02;;;;;;;10.43;5.80;;;;;;;;;;5043863;28;20040;-51
2021/09/20 06:22:28;;;;;;;9.70;5.45;;;;;;;;;;5044312;28;20022;-51
2021/09/20 06:24:56;;;;;;;11.57;6.10;;;;;;;;;;5040649;28;20363;-51
2021/09/20 06:27:22;;;;;;;10.80;5.45;;;;;;;;;;5042162;28;20033;-51
2021/09/20 06:29:48;;;;;;;11.82;5.78;;;;;;;;;;5041634;28;20462;-51
2021/09/20 06:32:14;;;;;;;9.68;5.70;;;;;;;;;;5038496;28;20045;-51
2021/09/20 06:34:40;;;;;;;12.60;6.30;;;;;;;;;;5041307;28;20083;-51
2021/09/20 06:37:06;;;;;;;13.43;6.03;;;;;;;;;;5042957;28;20025;-51
2021/09/20 06:39:33;;;;;;;11.50;5.40;;;;;;;;;;5043533;28;20409;-51
2021/09/20 06:42:01;;;;;;;10.48;5.22;;;;;;;;;;5043173;28;20041;-52
2021/09/20 06:44:27;;;;;;;12.38;5.95;;;;;;;;;;5042991;28;20513;-51
2021/09/20 06:46:53;;;;;;;9.65;5.20;;;;;;;;;;5041617;28;20028;-51
2021/09/20 06:49:21;;;;;;;14.93;5.53;;;;;;;;;;5043473;28;20514;-51
2021/09/20 06:51:47;;;;;;;8.50;4.78;;;;;;;;;;5043165;28;20448;-51
2021/09/20 06:54:13;;;;;;;10.05;4.90;;;;;;;;;;5043352;28;20442;-51
2021/09/20 06:56:39;;;;;;;9.50;5.75;;;;;;;;;;5043171;28;20105;-51
2021/09/20 06:59:05;;;;;;;10.23;5.38;;;;;;;;;;5043240;28;20032;-51
2021/09/20 07:01:31;;;;;;;8.60;5.35;;;;;;;;;;5044839;28;20469;-51
2021/09/20 07:03:57;;;;;;;11.55;6.03;;;;;;;;;;5042173;28;20431;-51
2021/09/20 07:06:23;;;;;;;12.48;5.38;;;;;;;;;;5052436;28;20092;-51
2021/09/20 07:08:49;;;;;;;9.95;5.60;;;;;;;;;;5044621;28;20025;-51
2021/09/20 07:11:15;;;;;;;9.30;5.50;;;;;;;;;;5044272;28;20386;-51
2021/09/20 07:13:41;;;;;;;7.97;5.00;;;;;;;;;;5042719;28;20029;-51
2021/09/20 07:16:07;;;;;;;11.77;5.85;;;;;;;;;;5042312;28;20478;-51
2021/09/20 07:18:33;;;;;;;10.80;5.95;;;;;;;;;;5041316;28;20029;-51
2021/09/20 07:20:59;;;;;;;13.45;5.93;;;;;;;;;;5041736;28;20021;-51
2021/09/20 07:23:25;;;;;;;12.77;5.88;;;;;;;;;;5042311;28;20026;-51
2021/09/20 07:25:51;;;;;;;12.70;6.45;;;;;;;;;;5041102;28;20025;-51
2021/09/20 07:28:17;;;;;;;9.40;4.97;;;;;;;;;;5042335;28;20044;-51
2021/09/20 07:30:44;;;;;;;11.75;6.20;;;;;;;;;;5044512;28;20342;-51
2021/09/20 07:33:10;;;;;;;11.65;6.35;;;;;;;;;;5045663;28;20573;-51
2021/09/20 07:35:36;;;;;;;18.13;5.72;;;;;;;;;;5046358;28;20036;-51
2021/09/20 07:38:03;;;;;;;11.95;6.45;;;;;;;;;;5048055;28;20024;-51
2021/09/20 07:40:29;;;;;;;16.92;6.53;;;;;;;;;;5047153;28;20033;-51
2021/09/20 07:42:56;;;;;;;12.82;6.85;;;;;;;;;;5047585;28;20075;-51
2021/09/20 07:45:22;;;;;;;13.05;6.80;;;;;;;;;;5047188;28;20498;-51
2021/09/20 07:47:48;;;;;;;14.02;6.82;;;;;;;;;;5046679;28;20025;-51
2021/09/20 07:50:15;;;;;;;17.50;7.95;;;;;;;;;;5047937;28;20112;-51
2021/09/20 07:52:42;;;;;;;14.40;7.72;;;;;;;;;;5047212;28;20032;-52
2021/09/20 07:55:08;;;;;;;10.93;6.03;;;;;;;;;;5046010;28;20036;-51
2021/09/20 07:57:34;;;;;;;14.00;7.70;;;;;;;;;;5043246;28;20435;-51
2021/09/20 08:00:00;;;;;;;14.90;7.95;;;;;;;;;;5044605;28;20029;-51
2021/09/20 08:02:27;;;;;;;14.20;7.40;;;;;;;;;;5048702;28;20501;-51
2021/09/20 08:04:53;;;;;;;12.77;7.05;;;;;;;;;;5046902;28;20032;-51
2021/09/20 08:07:19;;;;;;;16.02;7.57;;;;;;;;;;5045173;28;20347;-51
2021/09/20 08:09:45;;;;;;;11.88;6.25;;;;;;;;;;5044876;28;20082;-51
2021/09/20 08:12:11;;;;;;;13.85;7.72;;;;;;;;;;5046534;28;20029;-51
2021/09/20 08:14:37;;;;;;;13.73;6.93;;;;;;;;;;5045804;28;20017;-51
2021/09/20 08:17:03;;;;;;;18.50;8.05;;;;;;;;;;5046134;28;20074;-52
2021/09/20 08:19:29;;;;;;;15.25;7.97;;;;;;;;;;5046499;28;20489;-51
2021/09/20 08:21:55;;;;;;;18.10;8.90;;;;;;;;;;5046579;28;20017;-51
2021/09/20 08:24:21;;;;;;;14.57;8.55;;;;;;;;;;5046425;28;20025;-51
2021/09/20 08:26:47;;;;;;;17.42;7.47;;;;;;;;;;5046779;28;20423;-51
2021/09/20 08:29:13;;;;;;;19.70;7.95;;;;;;;;;;5047344;28;20044;-51
2021/09/20 08:31:39;;;;;;;19.42;8.00;;;;;;;;;;5046818;28;20025;-51
2021/09/20 08:34:05;;;;;;;20.35;7.95;;;;;;;;;;5046030;28;20028;-52
2021/09/20 08:36:31;;;;;;;17.85;8.38;;;;;;;;;;5050090;28;20044;-51
2021/09/20 08:38:57;;;;;;;18.80;8.57;;;;;;;;;;5044979;28;20455;-51
2021/09/20 08:41:23;;;;;;;17.98;8.85;;;;;;;;;;5044472;28;20032;-51
2021/09/20 08:43:49;;;;;;;17.70;9.00;;;;;;;;;;5043980;28;20025;-51
2021/09/20 08:46:15;;;;;;;14.88;8.98;;;;;;;;;;5044119;28;20283;-51
2021/09/20 08:48:42;;;;;;;13.70;7.60;;;;;;;;;;5045046;28;20067;-51
2021/09/20 08:51:09;;;;;;;22.65;9.68;;;;;;;;;;5043970;28;20455;-51
2021/09/20 08:53:35;;;;;;;16.63;5.80;;;;;;;;;;5044180;28;20061;-51
2021/09/20 08:56:01;;;;;;;14.27;7.28;;;;;;;;;;5044472;28;20111;-52
2021/09/20 08:58:27;;;;;;;13.50;7.32;;;;;;;;;;5046023;28;20423;-51
2021/09/20 09:00:54;;;;;;;12.85;8.05;;;;;;;;;;5045010;28;20013;-51
2021/09/20 09:03:21;;;;;;;16.73;7.38;;;;;;;;;;5045776;28;20060;-52
2021/09/20 09:05:48;;;;;;;18.05;8.02;;;;;;;;;;5044301;28;20432;-52
2021/09/20 09:08:18;;;;;;;15.73;7.70;;;;;;;;;;5046275;28;20028;-51
2021/09/20 09:10:45;;;;;;;18.60;9.23;;;;;;;;;;5045027;28;20017;-51
2021/09/20 09:13:13;;;;;;;13.48;7.63;;;;;;;;;;5045901;28;20036;-51
2021/09/20 09:15:39;;;;;;;18.50;8.63;;;;;;;;;;5044381;28;20029;-52
2021/09/20 09:18:06;;;;;;;18.95;9.38;;;;;;;;;;5045600;28;20055;-51
2021/09/20 09:20:34;;;;;;;17.92;8.43;;;;;;;;;;5046006;28;20567;-52
2021/09/20 09:23:01;;;;;;;14.40;6.95;;;;;;;;;;5045787;28;20025;-52
2021/09/20 09:25:27;;;;;;;17.40;8.50;;;;;;;;;;5046352;28;20025;-51
2021/09/20 09:27:54;;;;;;;17.95;8.70;;;;;;;;;;5045957;28;20483;-51
2021/09/20 09:30:22;;;;;;;17.30;8.45;;;;;;;;;;5046868;28;20151;-51
2021/09/20 09:32:49;;;;;;;14.38;7.55;;;;;;;;;;5042835;28;20033;-51
2021/09/20 09:35:16;;;;;;;15.48;6.45;;;;;;;;;;5043041;28;20033;-51
2021/09/20 09:37:44;;;;;;;13.55;7.68;;;;;;;;;;5044495;28;20537;-51
2021/09/20 09:40:28;;;;;;;20.40;7.88;;;;;;;;;;5042660;28;20068;-51
2021/09/20 09:42:59;;;;;;;16.00;7.75;;;;;;;;;;5043235;28;20206;-51
2021/09/20 09:45:32;;;;;;;18.42;8.32;;;;;;;;;;5043079;28;20033;-51
2021/09/20 09:48:06;;;;;;;18.42;8.07;;;;;;;;;;5043665;28;20490;-51
2021/09/20 09:50:32;;;;;;;18.02;9.15;;;;;;;;;;5044458;28;20056;-51
2021/09/20 09:52:59;;;;;;;12.75;7.68;;;;;;;;;;5042817;28;20151;-51
2021/09/20 09:55:27;;;;;;;13.35;6.93;;;;;;;;;;5043558;28;20036;-51
2021/09/20 09:57:53;;;;;;;18.50;8.35;;;;;;;;;;5044271;28;20068;-51
2021/09/20 10:00:20;;;;;;;14.40;8.25;;;;;;;;;;5044423;28;20064;-51
2021/09/20 10:02:48;;;;;;;16.95;8.02;;;;;;;;;;5042695;28;20021;-52
2021/09/20 10:05:21;;;;;;;16.95;8.00;;;;;;;;;;5045022;28;20032;-51
2021/09/20 10:07:48;;;;;;;16.30;7.72;;;;;;;;;;5044381;28;20040;-52
2021/09/20 10:10:20;;;;;;;18.30;8.82;;;;;;;;;;5045483;28;20067;-51
2021/09/20 10:12:47;;;;;;;15.05;8.98;;;;;;;;;;5044999;28;20401;-51
2021/09/20 10:15:17;;;;;;;15.10;8.02;;;;;;;;;;5044455;28;20123;-51
2021/09/20 10:17:43;;;;;;;17.52;8.63;;;;;;;;;;5044842;28;20050;-51
2021/09/20 10:20:12;;;;;;;20.60;10.25;;;;;;;;;;5045225;28;20037;-51
2021/09/20 10:22:37;;;;;;;15.25;8.63;;;;;;;;;;5044874;28;20021;-51
2021/09/20 10:25:05;;;;;;;19.98;8.50;;;;;;;;;;5043649;28;20032;-51
2021/09/20 10:27:31;;;;;;;14.85;8.50;;;;;;;;;;5042218;28;20060;-51
2021/09/20 10:30:01;;;;;;;17.20;8.45;;;;;;;;;;5041725;28;20451;-51
2021/09/20 10:32:28;;;;;;;20.77;8.60;;;;;;;;;;5043308;28;20055;-51
2021/09/20 10:35:14;;;;;;;20.30;7.90;;;;;;;;;;5041932;28;20736;-51
2021/09/20 10:37:40;;;;;;;15.93;8.13;;;;;;;;;;5041844;28;20534;-51
2021/09/20 10:40:10;;;;;;;17.85;7.80;;;;;;;;;;5043288;28;20064;-51
2021/09/20 10:42:36;;;;;;;16.95;8.13;;;;;;;;;;5043055;28;20067;-51
2021/09/20 10:45:03;;;;;;;15.63;8.65;;;;;;;;;;5042047;28;20025;-51
2021/09/20 10:47:42;;;;;;;14.73;7.72;;;;;;;;;;5043685;28;20016;-51
2021/09/20 10:50:08;;;;;;;14.63;7.65;;;;;;;;;;5043557;28;20041;-51
2021/09/20 10:52:34;;;;;;;14.80;6.88;;;;;;;;;;5043156;28;20017;-51
2021/09/20 10:55:06;;;;;;;16.52;8.65;;;;;;;;;;5042484;28;20477;-51
2021/09/20 10:57:32;;;;;;;9.77;5.97;;;;;;;;;;5044072;28;20029;-51
2021/09/20 11:00:17;;;;;;;9.52;5.72;;;;;;;;;;5043057;28;20025;-51
2021/09/20 11:02:43;;;;;;;13.38;5.95;;;;;;;;;;5043280;28;20025;-52
2021/09/20 11:05:09;;;;;;;14.38;6.18;;;;;;;;;;5043343;28;20029;-52
2021/09/20 11:07:44;;;;;;;14.20;7.07;;;;;;;;;;5043607;28;20473;-52
2021/09/20 11:10:10;;;;;;;10.63;6.25;;;;;;;;;;5044654;28;20027;-52
2021/09/20 11:12:55;;;;;;;12.15;6.13;;;;;;;;;;5044481;28;20471;-52
2021/09/20 11:15:22;;;;;;;9.63;5.90;;;;;;;;;;5044338;28;20060;-52
2021/09/20 11:17:49;;;;;;;10.43;5.63;;;;;;;;;;5043440;28;20030;-52
2021/09/20 11:20:20;;;;;;;11.18;5.60;;;;;;;;;;5041746;28;20034;-52
2021/09/20 11:22:46;;;;;;;8.35;5.03;;;;;;;;;;5041264;28;20313;-52
2021/09/20 11:25:15;;;;;;;12.43;6.15;;;;;;;;;;5041572;28;20091;-51
2021/09/20 11:27:46;;;;;;;10.77;5.60;;;;;;;;;;5041688;28;20036;-52
2021/09/20 11:30:14;;;;;;;10.20;5.38;;;;;;;;;;5041837;28;20051;-52
2021/09/20 11:33:01;;;;;;;8.95;5.00;;;;;;;;;;5041675;28;20151;-52
2021/09/20 11:35:28;;;;;;;13.07;6.38;;;;;;;;;;5040457;28;20025;-52
2021/09/20 11:37:55;;;;;;;11.40;5.22;;;;;;;;;;5045312;28;20033;-52
2021/09/20 11:40:22;;;;;;;11.35;6.75;;;;;;;;;;5042261;28;20067;-52
2021/09/20 11:42:49;;;;;;;9.23;5.07;;;;;;;;;;5042191;28;20412;-52
2021/09/20 11:45:23;;;;;;;11.32;5.82;;;;;;;;;;5042791;28;20055;-52
2021/09/20 11:47:50;;;;;;;11.25;5.43;;;;;;;;;;5042195;28;20029;-52
2021/09/20 11:50:21;;;;;;;14.93;5.32;;;;;;;;;;5043004;28;20025;-52
2021/09/20 11:52:54;;;;;;;7.53;4.63;;;;;;;;;;5043086;28;20033;-52
2021/09/20 11:55:30;;;;;;;9.85;5.32;;;;;;;;;;5043178;28;20595;-51
2021/09/20 11:58:04;;;;;;;6.85;3.85;;;;;;;;;;5042875;28;20017;-52
2021/09/20 12:00:31;;;;;;;9.77;4.35;;;;;;;;;;5044171;28;20493;-51
2021/09/20 12:02:58;;;;;;;9.50;5.45;;;;;;;;;;5043534;28;20082;-52
2021/09/20 12:05:25;;;;;;;11.63;5.30;;;;;;;;;;5044013;28;20056;-52
2021/09/20 12:07:56;;;;;;;10.77;4.75;;;;;;;;;;5043082;28;20109;-52
2021/09/20 12:10:25;;;;;;;11.15;4.10;;;;;;;;;;5044199;28;20076;-52
2021/09/20 12:12:52;;;;;;;11.77;4.22;;;;;;;;;;5041024;28;20466;-52
2021/09/20 12:15:20;;;;;;;13.05;4.57;;;;;;;;;;5039349;28;20026;-52
2021/09/20 12:17:46;;;;;;;9.75;4.50;;;;;;;;;;5043473;28;20025;-52
2021/09/20 12:20:12;;;;;;;13.43;5.70;;;;;;;;;;5045267;28;20339;-52
2021/09/20 12:22:39;;;;;;;8.73;4.28;;;;;;;;;;5044612;28;20017;-51
2021/09/20 12:25:20;;;;;;;9.18;4.47;;;;;;;;;;5045104;28;20367;-52
2021/09/20 12:27:47;;;;;;;8.88;4.63;;;;;;;;;;5045562;28;20026;-52
2021/09/20 12:30:17;;;;;;;12.38;5.53;;;;;;;;;;5045727;28;20059;-51
2021/09/20 12:32:43;;;;;;;7.68;4.72;;;;;;;;;;5045524;28;20017;-51
2021/09/20 12:35:10;;;;;;;9.48;4.97;;;;;;;;;;5045442;28;20026;-52
2021/09/20 12:37:36;;;;;;;13.95;6.07;;;;;;;;;;5045257;28;20021;-51
2021/09/20 12:40:34;;;;;;;10.63;5.13;;;;;;;;;;5046014;28;20335;-51
2021/09/20 12:43:10;;;;;;;9.07;4.53;;;;;;;;;;5032192;28;20046;-51
2021/09/20 12:45:39;;;;;;;9.05;5.22;;;;;;;;;;5031689;28;20034;-52
2021/09/20 12:48:06;;;;;;;8.57;4.40;;;;;;;;;;5032933;28;20056;-51
2021/09/20 12:50:43;;;;;;;20.58;6.15;;;;;;;;;;5032957;28;20440;-52
2021/09/20 12:53:09;;;;;;;7.80;4.13;;;;;;;;;;5032336;28;20065;-51
2021/09/20 12:55:37;;;;;;;11.38;3.83;;;;;;;;;;5032201;28;20107;-51
2021/09/20 12:58:04;;;;;;;6.68;4.60;;;;;;;;;;5031678;28;20144;-51
2021/09/20 13:00:32;;;;;;;13.73;5.88;;;;;;;;;;5033150;28;20025;-52
2021/09/20 13:03:08;;;;;;;11.05;5.20;;;;;;;;;;5032357;28;20394;-51
2021/09/20 13:05:42;;;;;;;12.90;6.05;;;;;;;;;;5029783;28;20033;-51
2021/09/20 13:08:08;;;;;;;19.05;6.25;;;;;;;;;;5031895;28;20053;-51
2021/09/20 13:10:34;;;;;;;11.65;5.10;;;;;;;;;;5031411;28;20371;-51
2021/09/20 13:13:01;;;;;;;13.68;5.93;;;;;;;;;;5030623;28;20567;-51
2021/09/20 13:15:27;;;;;;;12.77;6.47;;;;;;;;;;5030532;28;20029;-51
2021/09/20 13:17:57;;;;;;;11.52;5.57;;;;;;;;;;5033817;28;20045;-51
2021/09/20 13:20:34;;;;;;;9.32;5.75;;;;;;;;;;5044740;28;20036;-50
2021/09/20 13:23:00;;;;;;;10.15;5.32;;;;;;;;;;5044140;28;20063;-51
2021/09/20 13:25:28;;;;;;;11.10;5.32;;;;;;;;;;5044094;28;20060;-51
2021/09/20 13:28:01;;;;;;;11.25;5.60;;;;;;;;;;5044420;28;20025;-51
2021/09/20 13:30:28;;;;;;;11.13;5.45;;;;;;;;;;5045832;28;20037;-51
2021/09/20 13:32:54;;;;;;;11.25;5.38;;;;;;;;;;5045259;28;20021;-51
2021/09/20 13:35:25;;;;;;;12.52;5.68;;;;;;;;;;5044258;28;20473;-51
2021/09/20 13:37:51;;;;;;;11.25;5.50;;;;;;;;;;5046537;28;20108;-51
2021/09/20 13:40:18;;;;;;;13.93;5.38;;;;;;;;;;5045854;28;20037;-51
2021/09/20 13:42:44;;;;;;;12.77;4.68;;;;;;;;;;5044891;28;20366;-51
2021/09/20 13:45:10;;;;;;;10.00;5.05;;;;;;;;;;5044433;28;20530;-51
2021/09/20 13:47:36;;;;;;;10.90;5.30;;;;;;;;;;5045498;28;20048;-51
2021/09/20 13:50:03;;;;;;;12.07;5.13;;;;;;;;;;5045043;28;20028;-51
2021/09/20 13:52:29;;;;;;;16.65;5.43;;;;;;;;;;5047369;28;20460;-51
2021/09/20 13:54:55;;;;;;;10.75;5.47;;;;;;;;;;5044679;28;20407;-51
2021/09/20 13:57:21;;;;;;;14.63;5.80;;;;;;;;;;5044226;28;20133;-51
2021/09/20 13:59:47;;;;;;;13.65;5.82;;;;;;;;;;5040071;28;20064;-52
2021/09/20 14:02:13;;;;;;;11.20;5.45;;;;;;;;;;5042753;28;20474;-51
2021/09/20 14:04:39;;;;;;;9.90;5.03;;;;;;;;;;5041931;28;20049;-51
2021/09/20 14:07:05;;;;;;;13.55;5.65;;;;;;;;;;5043926;28;20036;-51
2021/09/20 14:09:31;;;;;;;12.63;5.32;;;;;;;;;;5043228;28;20025;-51
2021/09/20 14:11:57;;;;;;;10.07;4.88;;;;;;;;;;5043215;28;20017;-51
2021/09/20 14:14:23;;;;;;;10.75;5.28;;;;;;;;;;5043519;28;20029;-51
2021/09/20 14:16:49;;;;;;;14.30;6.13;;;;;;;;;;5043158;28;20266;-51
2021/09/20 14:19:16;;;;;;;7.50;4.43;;;;;;;;;;5044192;28;20048;-51
2021/09/20 14:21:43;;;;;;;7.93;5.05;;;;;;;;;;5043573;28;20486;-51
2021/09/20 14:24:08;;;;;;;8.85;4.60;;;;;;;;;;5042969;28;20033;-52
2021/09/20 14:26:34;;;;;;;15.95;4.68;;;;;;;;;;5044513;28;20025;-51
2021/09/20 14:29:00;;;;;;;9.45;4.65;;;;;;;;;;5043124;28;20033;-51
2021/09/20 14:31:26;;;;;;;12.30;5.00;;;;;;;;;;5044765;28;20347;-52
2021/09/20 14:33:52;;;;;;;12.13;5.00;;;;;;;;;;5043171;28;20155;-51
2021/09/20 14:36:18;;;;;;;8.10;4.78;;;;;;;;;;5045198;28;20363;-51